Time;durP1;ratioP1;P1;durP2;ratioP2;P2;SDS_P1;SDS_P2;PMS_P1;PMS_P2;Temp;Humidity;BMP_temperature;BMP_pressure;BME280_temperature;BME280_humidity;BME280_pressure;Samples;Min_cycle;Max_cycle;Signal;HPM_P1;HPM_P2
2022/04/21 00:02:25;;;;;;;11.30;5.13;;;;;;;;;;4963675;28;20050;-77
2022/04/21 00:04:51;;;;;;;9.90;5.15;;;;;;;;;;4964657;28;20064;-75
2022/04/21 00:07:17;;;;;;;12.40;5.40;;;;;;;;;;4962513;28;20039;-79
2022/04/21 00:09:43;;;;;;;9.38;5.38;;;;;;;;;;4976612;28;20459;-74
2022/04/21 00:12:10;;;;;;;9.50;4.82;;;;;;;;;;4980410;28;20046;-76
2022/04/21 00:14:36;;;;;;;12.00;5.55;;;;;;;;;;4964842;28;20395;-76
2022/04/21 00:17:02;;;;;;;9.52;4.85;;;;;;;;;;4978302;28;20077;-76
2022/04/21 00:19:28;;;;;;;9.98;5.40;;;;;;;;;;4976643;28;20093;-76
2022/04/21 00:24:38;;;;;;;16.80;6.82;;;;;;;;;;4975065;28;20422;-76
2022/04/21 00:27:04;;;;;;;12.27;5.65;;;;;;;;;;4980351;28;20134;-76
2022/04/21 00:29:30;;;;;;;12.55;5.30;;;;;;;;;;4978434;28;20050;-76
2022/04/21 00:31:56;;;;;;;10.68;5.82;;;;;;;;;;4963383;28;20479;-76
2022/04/21 00:34:22;;;;;;;12.68;5.95;;;;;;;;;;4960809;28;20042;-75
2022/04/21 00:36:48;;;;;;;11.07;5.68;;;;;;;;;;4981246;28;20614;-76
2022/04/21 00:39:14;;;;;;;9.55;5.50;;;;;;;;;;4963034;28;20422;-75
2022/04/21 00:41:41;;;;;;;11.32;6.07;;;;;;;;;;4976690;28;20038;-76
2022/04/21 00:44:07;;;;;;;12.60;5.85;;;;;;;;;;4957177;28;20045;-76
2022/04/21 00:46:37;;;;;;;15.20;6.35;;;;;;;;;;4961307;28;20042;-76
2022/04/21 00:49:04;;;;;;;10.60;6.45;;;;;;;;;;4962938;28;20030;-76
2022/04/21 00:51:31;;;;;;;13.70;6.00;;;;;;;;;;4960524;28;20038;-75
2022/04/21 00:53:57;;;;;;;10.43;5.47;;;;;;;;;;4978406;28;20038;-75
2022/04/21 00:56:23;;;;;;;11.05;6.15;;;;;;;;;;4964544;28;20045;-76
2022/04/21 00:58:49;;;;;;;12.57;5.55;;;;;;;;;;4979429;28;20038;-76
2022/04/21 01:04:00;;;;;;;13.40;6.43;;;;;;;;;;4978589;28;20046;-77
2022/04/21 01:06:26;;;;;;;12.75;5.95;;;;;;;;;;4961690;28;20034;-76
2022/04/21 01:08:52;;;;;;;14.80;6.13;;;;;;;;;;4963398;28;20042;-77
2022/04/21 01:11:18;;;;;;;11.68;5.70;;;;;;;;;;4981312;28;20038;-77
2022/04/21 01:13:46;;;;;;;12.20;6.57;;;;;;;;;;4965845;28;20034;-76
2022/04/21 01:16:12;;;;;;;13.55;6.35;;;;;;;;;;4965529;28;20066;-77
2022/04/21 01:18:38;;;;;;;10.70;5.78;;;;;;;;;;4963567;28;20178;-76
2022/04/21 01:21:04;;;;;;;13.60;6.53;;;;;;;;;;4961954;28;20513;-76
2022/04/21 01:23:30;;;;;;;10.40;6.15;;;;;;;;;;4980209;28;20410;-77
2022/04/21 01:25:56;;;;;;;11.05;6.13;;;;;;;;;;4963942;28;20082;-76
2022/04/21 01:28:22;;;;;;;10.90;5.63;;;;;;;;;;4977452;28;20101;-78
2022/04/21 01:30:48;;;;;;;12.90;5.70;;;;;;;;;;4979227;28;20046;-76
2022/04/21 01:33:14;;;;;;;11.48;6.50;;;;;;;;;;4977164;28;20069;-76
2022/04/21 01:35:40;;;;;;;13.55;6.53;;;;;;;;;;4977209;28;20065;-76
2022/04/21 01:41:09;;;;;;;18.52;8.10;;;;;;;;;;4976056;28;20050;-75
2022/04/21 01:43:35;;;;;;;15.25;7.35;;;;;;;;;;4962437;28;20505;-77
2022/04/21 01:46:01;;;;;;;14.88;7.63;;;;;;;;;;4977780;28;20041;-76
2022/04/21 01:48:27;;;;;;;18.60;7.60;;;;;;;;;;4960956;28;20046;-75
2022/04/21 01:50:53;;;;;;;19.10;8.63;;;;;;;;;;4977143;28;20043;-75
2022/04/21 01:53:19;;;;;;;14.50;7.13;;;;;;;;;;4978013;28;20672;-76
2022/04/21 01:55:46;;;;;;;13.60;7.18;;;;;;;;;;4976965;28;20046;-75
2022/04/21 01:58:12;;;;;;;20.02;8.20;;;;;;;;;;4963921;28;20136;-76
2022/04/21 02:00:38;;;;;;;14.32;7.20;;;;;;;;;;4963560;28;20486;-77
2022/04/21 02:03:04;;;;;;;14.38;6.70;;;;;;;;;;4981538;28;20042;-76
2022/04/21 02:05:31;;;;;;;9.65;6.30;;;;;;;;;;4964830;28;20134;-74
2022/04/21 02:07:57;;;;;;;13.07;7.25;;;;;;;;;;4979776;28;20043;-76
2022/04/21 02:10:23;;;;;;;13.75;8.05;;;;;;;;;;4963711;28;20061;-77
2022/04/21 02:12:49;;;;;;;14.25;5.88;;;;;;;;;;4965245;28;20486;-76
2022/04/21 02:15:17;;;;;;;12.50;6.80;;;;;;;;;;4967370;28;20038;-75
2022/04/21 02:17:44;;;;;;;12.20;6.68;;;;;;;;;;4965704;28;20046;-76
2022/04/21 02:20:11;;;;;;;13.30;6.75;;;;;;;;;;4981804;28;20046;-78
2022/04/21 02:22:37;;;;;;;13.40;6.78;;;;;;;;;;4962717;28;20068;-76
2022/04/21 02:25:06;;;;;;;11.95;6.43;;;;;;;;;;4962796;28;20057;-79
2022/04/21 02:27:32;;;;;;;19.48;7.45;;;;;;;;;;4981136;28;20041;-76
2022/04/21 02:29:59;;;;;;;14.48;6.53;;;;;;;;;;4978783;28;20137;-74
2022/04/21 02:32:25;;;;;;;12.77;7.05;;;;;;;;;;4980496;28;20046;-77
2022/04/21 02:34:53;;;;;;;17.52;6.75;;;;;;;;;;4981911;28;20046;-74
2022/04/21 02:37:20;;;;;;;14.38;6.65;;;;;;;;;;4962589;28;20042;-75
2022/04/21 02:39:46;;;;;;;17.45;7.05;;;;;;;;;;4963694;28;20426;-77
2022/04/21 02:42:12;;;;;;;12.98;6.38;;;;;;;;;;4978767;28;20046;-75
2022/04/21 02:44:38;;;;;;;10.25;6.00;;;;;;;;;;4963233;28;20057;-75
2022/04/21 02:47:05;;;;;;;12.40;6.60;;;;;;;;;;4977321;28;20043;-75
2022/04/21 02:49:32;;;;;;;13.57;6.93;;;;;;;;;;4963611;28;20478;-78
2022/04/21 02:51:58;;;;;;;15.23;7.10;;;;;;;;;;4963236;28;20038;-77
2022/04/21 02:57:21;;;;;;;15.15;7.25;;;;;;;;;;4978776;28;20078;-76
2022/04/21 03:00:06;;;;;;;13.13;6.65;;;;;;;;;;4961924;28;20125;-76
2022/04/21 03:02:32;;;;;;;12.38;7.10;;;;;;;;;;4967701;28;20046;-76
2022/04/21 03:04:58;;;;;;;14.63;7.50;;;;;;;;;;4975632;28;20038;-77
2022/04/21 03:07:24;;;;;;;15.00;8.02;;;;;;;;;;4992116;28;20065;-76
2022/04/21 03:09:53;;;;;;;14.70;6.85;;;;;;;;;;4994046;28;20053;-76
2022/04/21 03:12:18;;;;;;;14.93;7.25;;;;;;;;;;4978872;28;20039;-76
2022/04/21 03:14:44;;;;;;;13.20;6.63;;;;;;;;;;4995278;28;20045;-76
2022/04/21 03:17:11;;;;;;;12.20;7.07;;;;;;;;;;4993878;28;20452;-76
2022/04/21 03:19:37;;;;;;;14.63;7.60;;;;;;;;;;4993225;28;20050;-75
2022/04/21 03:24:48;;;;;;;14.05;8.07;;;;;;;;;;4973239;28;20047;-76
2022/04/21 03:27:15;;;;;;;12.82;7.28;;;;;;;;;;4978967;28;20038;-76
2022/04/21 03:29:41;;;;;;;13.27;7.15;;;;;;;;;;4959712;28;20125;-75
2022/04/21 03:32:09;;;;;;;13.30;7.25;;;;;;;;;;4977281;28;20471;-76
2022/04/21 03:34:37;;;;;;;12.70;6.47;;;;;;;;;;4960464;28;20038;-76
2022/04/21 03:37:03;;;;;;;13.30;6.70;;;;;;;;;;4965137;28;20129;-76
2022/04/21 03:39:29;;;;;;;12.20;6.50;;;;;;;;;;4962381;28;20046;-76
2022/04/21 03:41:55;;;;;;;12.63;7.07;;;;;;;;;;4962882;28;20034;-76
2022/04/21 03:44:24;;;;;;;13.75;6.93;;;;;;;;;;4975499;28;20046;-76
2022/04/21 03:46:50;;;;;;;16.27;7.60;;;;;;;;;;4976789;28;20471;-76
2022/04/21 03:49:16;;;;;;;13.68;7.07;;;;;;;;;;4962083;28;20049;-75
2022/04/21 03:51:42;;;;;;;12.65;6.50;;;;;;;;;;4972377;28;20500;-76
2022/04/21 03:54:08;;;;;;;14.75;7.60;;;;;;;;;;4960499;28;20121;-76
2022/04/21 03:56:35;;;;;;;12.82;6.47;;;;;;;;;;4962324;28;20088;-77
2022/04/21 03:59:01;;;;;;;14.27;6.30;;;;;;;;;;4958967;28;20077;-77
2022/04/21 04:01:27;;;;;;;13.68;7.50;;;;;;;;;;4961251;28;20042;-76
2022/04/21 04:03:53;;;;;;;12.02;6.50;;;;;;;;;;4977533;28;20053;-75
2022/04/21 04:11:50;;;;;;;13.77;7.30;;;;;;;;;;4974311;28;20035;-75
2022/04/21 04:14:16;;;;;;;10.90;6.32;;;;;;;;;;4957754;28;20467;-77
2022/04/21 04:16:42;;;;;;;14.25;6.93;;;;;;;;;;4961732;28;20089;-76
2022/04/21 04:19:08;;;;;;;8.82;5.43;;;;;;;;;;4962409;28;20049;-77
2022/04/21 04:21:35;;;;;;;12.63;6.45;;;;;;;;;;4962516;28;20564;-74
2022/04/21 04:24:01;;;;;;;10.10;6.80;;;;;;;;;;4963302;28;20270;-77
2022/04/21 04:26:27;;;;;;;12.48;6.38;;;;;;;;;;4977058;28;20402;-76
2022/04/21 04:28:54;;;;;;;13.18;7.38;;;;;;;;;;4957111;28;20129;-76
2022/04/21 04:31:20;;;;;;;12.30;6.63;;;;;;;;;;4970200;28;20119;-78
2022/04/21 04:33:46;;;;;;;11.95;6.80;;;;;;;;;;4959534;28;20427;-75
2022/04/21 04:36:15;;;;;;;11.65;6.00;;;;;;;;;;4961351;28;20469;-75
2022/04/21 04:38:42;;;;;;;12.02;5.78;;;;;;;;;;4975245;28;20050;-75
2022/04/21 04:43:52;;;;;;;11.98;5.95;;;;;;;;;;4975771;28;20072;-75
2022/04/21 04:46:37;;;;;;;9.65;6.15;;;;;;;;;;4959507;28;20041;-75
2022/04/21 04:49:05;;;;;;;13.73;7.57;;;;;;;;;;4973656;28;20073;-75
2022/04/21 04:51:31;;;;;;;11.77;6.35;;;;;;;;;;4949737;28;20411;-75
2022/04/21 04:53:57;;;;;;;12.43;6.75;;;;;;;;;;4980427;28;20042;-74
2022/04/21 04:56:24;;;;;;;10.70;6.28;;;;;;;;;;4959939;28;20129;-74
2022/04/21 04:58:50;;;;;;;13.45;6.78;;;;;;;;;;4960908;28;20519;-75
2022/04/21 05:01:32;;;;;;;11.50;5.93;;;;;;;;;;4975226;28;20039;-76
2022/04/21 05:04:05;;;;;;;11.52;6.00;;;;;;;;;;4959949;28;20045;-75
2022/04/21 05:06:38;;;;;;;10.23;6.07;;;;;;;;;;4975527;28;20043;-76
2022/04/21 05:09:05;;;;;;;11.55;5.63;;;;;;;;;;4960650;28;20043;-75
2022/04/21 05:11:31;;;;;;;12.25;6.70;;;;;;;;;;4975245;28;20038;-76
2022/04/21 05:13:57;;;;;;;13.68;6.78;;;;;;;;;;4974888;28;20042;-75
2022/04/21 05:16:23;;;;;;;17.52;7.13;;;;;;;;;;4959771;28;20042;-76
2022/04/21 05:18:50;;;;;;;10.98;6.10;;;;;;;;;;4959708;28;20050;-75
2022/04/21 05:21:17;;;;;;;14.35;6.97;;;;;;;;;;4959190;28;20050;-77
2022/04/21 05:23:45;;;;;;;10.35;6.60;;;;;;;;;;4976302;28;20128;-75
2022/04/21 05:26:11;;;;;;;12.65;6.95;;;;;;;;;;4975338;28;20090;-76
2022/04/21 05:28:37;;;;;;;12.90;6.95;;;;;;;;;;4960152;28;20089;-77
2022/04/21 05:31:03;;;;;;;11.43;6.60;;;;;;;;;;4979152;28;20414;-75
2022/04/21 05:33:30;;;;;;;14.38;6.90;;;;;;;;;;4979448;28;20101;-77
2022/04/21 05:35:57;;;;;;;15.77;6.47;;;;;;;;;;4963094;28;20082;-77
2022/04/21 05:38:23;;;;;;;20.80;7.70;;;;;;;;;;4983205;28;20049;-75
2022/04/21 05:40:50;;;;;;;8.90;6.38;;;;;;;;;;4979914;28;20104;-75
2022/04/21 05:43:20;;;;;;;10.85;6.18;;;;;;;;;;4979859;28;20423;-78
2022/04/21 05:45:47;;;;;;;9.80;5.77;;;;;;;;;;4979280;28;20054;-76
2022/04/21 05:48:14;;;;;;;10.60;5.70;;;;;;;;;;4963691;28;20281;-77
2022/04/21 05:50:42;;;;;;;7.63;4.80;;;;;;;;;;4963726;28;20100;-77
2022/04/21 05:53:11;;;;;;;10.90;5.53;;;;;;;;;;4981363;28;20046;-75
2022/04/21 05:55:37;;;;;;;10.10;5.47;;;;;;;;;;4964470;28;20498;-78
2022/04/21 05:58:03;;;;;;;9.90;5.75;;;;;;;;;;4964200;28;20133;-80
2022/04/21 06:00:29;;;;;;;11.55;5.38;;;;;;;;;;4963687;28;20107;-75
2022/04/21 06:02:55;;;;;;;9.15;6.10;;;;;;;;;;4967098;28;20053;-77
2022/04/21 06:05:21;;;;;;;9.80;5.22;;;;;;;;;;4986446;28;20046;-78
2022/04/21 06:07:47;;;;;;;8.27;4.65;;;;;;;;;;4967053;28;20071;-78
2022/04/21 06:10:13;;;;;;;10.30;5.55;;;;;;;;;;4966802;28;20073;-76
2022/04/21 06:12:39;;;;;;;9.25;5.10;;;;;;;;;;4963019;28;20042;-76
2022/04/21 06:15:06;;;;;;;9.40;4.68;;;;;;;;;;4981455;28;20049;-77
2022/04/21 06:17:32;;;;;;;6.88;4.57;;;;;;;;;;4979101;28;20038;-77
2022/04/21 06:19:57;;;;;;;8.68;4.43;;;;;;;;;;4967439;28;20045;-76
2022/04/21 06:22:24;;;;;;;7.25;4.43;;;;;;;;;;4966935;28;20566;-77
2022/04/21 06:24:49;;;;;;;6.43;4.40;;;;;;;;;;4980259;28;20049;-79
2022/04/21 06:27:15;;;;;;;7.32;4.35;;;;;;;;;;4985698;28;20045;-78
2022/04/21 06:29:41;;;;;;;7.07;4.72;;;;;;;;;;4967800;28;20058;-75
2022/04/21 06:32:08;;;;;;;6.82;4.32;;;;;;;;;;4963600;28;20043;-77
2022/04/21 06:34:34;;;;;;;6.78;4.22;;;;;;;;;;4978725;28;20046;-78
2022/04/21 06:37:00;;;;;;;6.85;4.10;;;;;;;;;;4964467;28;20042;-76
2022/04/21 06:39:26;;;;;;;4.88;3.72;;;;;;;;;;4966732;28;20100;-76
2022/04/21 06:41:53;;;;;;;8.57;3.58;;;;;;;;;;4956395;28;20033;-74
2022/04/21 06:49:48;;;;;;;5.57;3.30;;;;;;;;;;4978344;28;20050;-76
2022/04/21 06:52:14;;;;;;;4.30;3.58;;;;;;;;;;4963467;28;20085;-77
2022/04/21 06:54:40;;;;;;;5.63;3.20;;;;;;;;;;4963157;28;20048;-75
2022/04/21 06:57:06;;;;;;;6.18;3.78;;;;;;;;;;4963833;28;20057;-78
2022/04/21 06:59:32;;;;;;;4.90;3.10;;;;;;;;;;4965401;28;20041;-78
2022/04/21 07:01:58;;;;;;;4.13;3.22;;;;;;;;;;4976678;28;20047;-76
2022/04/21 07:04:24;;;;;;;5.13;4.53;;;;;;;;;;4963724;28;20038;-79
2022/04/21 07:06:50;;;;;;;5.32;3.78;;;;;;;;;;4980589;28;20406;-74
2022/04/21 07:09:16;;;;;;;6.88;3.53;;;;;;;;;;4961247;28;20121;-76
2022/04/21 07:11:43;;;;;;;7.13;4.95;;;;;;;;;;4963535;28;20384;-76
2022/04/21 07:14:10;;;;;;;6.30;4.82;;;;;;;;;;4981247;28;20039;-78
2022/04/21 07:16:36;;;;;;;5.22;3.97;;;;;;;;;;4963566;28;20686;-79
2022/04/21 07:19:02;;;;;;;6.60;5.03;;;;;;;;;;4965341;28;20045;-79
2022/04/21 07:21:28;;;;;;;5.43;3.20;;;;;;;;;;4964433;28;20049;-79
2022/04/21 07:23:54;;;;;;;5.10;4.65;;;;;;;;;;4965183;28;20052;-76
2022/04/21 07:26:20;;;;;;;5.45;4.95;;;;;;;;;;4961277;28;20042;-81
2022/04/21 07:28:46;;;;;;;5.47;4.97;;;;;;;;;;4962433;28;20061;-74
2022/04/21 07:31:12;;;;;;;4.50;3.50;;;;;;;;;;4977756;28;20030;-76
2022/04/21 07:33:38;;;;;;;5.60;4.38;;;;;;;;;;4960436;28;20042;-77
2022/04/21 07:36:05;;;;;;;4.18;3.78;;;;;;;;;;4979849;28;20045;-75
2022/04/21 07:38:31;;;;;;;4.88;4.38;;;;;;;;;;4963695;28;20053;-76
2022/04/21 07:40:57;;;;;;;4.40;4.00;;;;;;;;;;4958361;28;20034;-79
2022/04/21 07:43:23;;;;;;;5.40;4.10;;;;;;;;;;4965270;28;20154;-78
2022/04/21 07:45:49;;;;;;;5.72;3.85;;;;;;;;;;4981067;28;20346;-80
2022/04/21 07:48:16;;;;;;;4.78;4.03;;;;;;;;;;4976538;28;20038;-78
2022/04/21 07:50:42;;;;;;;7.47;4.30;;;;;;;;;;4961719;28;20065;-77
2022/04/21 07:53:13;;;;;;;4.30;3.90;;;;;;;;;;4964842;28;20042;-77
2022/04/21 07:55:40;;;;;;;3.95;3.65;;;;;;;;;;4962281;28;20042;-79
2022/04/21 07:58:06;;;;;;;4.55;4.03;;;;;;;;;;4961955;28;20081;-77
2022/04/21 08:00:34;;;;;;;4.10;3.72;;;;;;;;;;4949970;28;20034;-80
2022/04/21 08:03:00;;;;;;;3.70;3.40;;;;;;;;;;4972209;28;20086;-76
2022/04/21 08:05:26;;;;;;;4.80;3.70;;;;;;;;;;4957355;28;20073;-78
2022/04/21 08:07:52;;;;;;;4.60;3.88;;;;;;;;;;4960915;28;20038;-77
2022/04/21 08:10:20;;;;;;;4.18;3.33;;;;;;;;;;4961549;28;20471;-76
2022/04/21 08:12:50;;;;;;;3.80;3.40;;;;;;;;;;4961718;28;20046;-78
2022/04/21 08:15:22;;;;;;;3.45;3.10;;;;;;;;;;4978058;28;20046;-78
2022/04/21 08:17:48;;;;;;;5.50;3.42;;;;;;;;;;4960778;28;20184;-79
2022/04/21 08:20:13;;;;;;;3.55;3.22;;;;;;;;;;4958954;28;20502;-80
2022/04/21 08:22:40;;;;;;;4.35;3.33;;;;;;;;;;4973848;28;20128;-78
2022/04/21 08:33:21;;;;;;;3.85;3.50;;;;;;;;;;4976846;28;20046;-81
2022/04/21 08:35:48;;;;;;;4.90;3.72;;;;;;;;;;4976153;28;20410;-78
2022/04/21 08:38:14;;;;;;;4.15;3.58;;;;;;;;;;4960927;28;20045;-78
2022/04/21 08:40:50;;;;;;;3.90;3.60;;;;;;;;;;4961509;28;20049;-75
2022/04/21 08:43:16;;;;;;;3.63;3.33;;;;;;;;;;4959916;28;20054;-78
2022/04/21 08:45:43;;;;;;;3.78;3.42;;;;;;;;;;4976588;28;20133;-77
2022/04/21 08:48:11;;;;;;;5.78;3.90;;;;;;;;;;4959494;28;20038;-77
2022/04/21 08:50:37;;;;;;;5.15;3.90;;;;;;;;;;4956954;28;20133;-79
2022/04/21 08:53:03;;;;;;;4.40;3.63;;;;;;;;;;4957351;28;20046;-78
2022/04/21 08:55:29;;;;;;;3.47;3.15;;;;;;;;;;4958796;28;20510;-81
2022/04/21 08:57:56;;;;;;;3.55;3.25;;;;;;;;;;4959127;28;20498;-77
2022/04/21 09:00:22;;;;;;;3.85;3.17;;;;;;;;;;4974355;28;20046;-77
2022/04/21 09:02:49;;;;;;;5.25;3.63;;;;;;;;;;4958508;28;20053;-78
2022/04/21 09:05:16;;;;;;;4.05;3.40;;;;;;;;;;4973721;28;20542;-77
2022/04/21 09:07:45;;;;;;;4.50;3.60;;;;;;;;;;4977047;28;20038;-80
2022/04/21 09:10:12;;;;;;;4.53;3.30;;;;;;;;;;4977784;28;20398;-78
2022/04/21 09:12:46;;;;;;;4.85;3.92;;;;;;;;;;4960929;28;20052;-77
2022/04/21 09:15:16;;;;;;;9.80;4.05;;;;;;;;;;4961186;28;20273;-77
2022/04/21 09:17:47;;;;;;;5.00;4.18;;;;;;;;;;4961477;28;20483;-75
2022/04/21 09:20:15;;;;;;;4.13;3.03;;;;;;;;;;4962431;28;20049;-77
2022/04/21 09:22:42;;;;;;;3.47;3.03;;;;;;;;;;4976195;28;20431;-78
2022/04/21 09:25:09;;;;;;;3.40;2.50;;;;;;;;;;4978489;28;20047;-79
2022/04/21 09:27:54;;;;;;;5.07;2.40;;;;;;;;;;4963066;28;20194;-78
2022/04/21 09:30:21;;;;;;;6.07;2.90;;;;;;;;;;4977208;28;20113;-78
2022/04/21 09:32:52;;;;;;;5.15;2.78;;;;;;;;;;4960660;28;20398;-79
2022/04/21 09:35:19;;;;;;;3.55;2.78;;;;;;;;;;4960331;28;20046;-83
2022/04/21 09:37:46;;;;;;;4.20;2.70;;;;;;;;;;4976248;28;20042;-79
2022/04/21 09:40:12;;;;;;;3.22;2.80;;;;;;;;;;4976196;28;20514;-78
2022/04/21 09:42:38;;;;;;;3.72;2.83;;;;;;;;;;4961311;28;20490;-77
2022/04/21 09:47:56;;;;;;;5.18;2.90;;;;;;;;;;4976269;28;20042;-77
2022/04/21 09:50:25;;;;;;;6.13;2.95;;;;;;;;;;4960315;28;20057;-77
2022/04/21 09:52:53;;;;;;;5.68;2.92;;;;;;;;;;4961527;28;20042;-78
2022/04/21 09:55:20;;;;;;;3.22;2.63;;;;;;;;;;4960984;28;20603;-73
2022/04/21 09:57:45;;;;;;;2.83;2.30;;;;;;;;;;4975691;28;20046;-79
2022/04/21 10:00:12;;;;;;;4.45;2.90;;;;;;;;;;4976342;28;20108;-79
2022/04/21 10:02:39;;;;;;;5.50;2.65;;;;;;;;;;4959085;28;20042;-80
2022/04/21 10:05:05;;;;;;;2.92;2.30;;;;;;;;;;4960144;28;20046;-78
2022/04/21 10:07:32;;;;;;;4.35;2.75;;;;;;;;;;4975948;28;20081;-76
2022/04/21 10:09:59;;;;;;;9.13;2.50;;;;;;;;;;4975616;28;20053;-76
2022/04/21 10:12:25;;;;;;;3.38;2.63;;;;;;;;;;4976000;28;20557;-80
2022/04/21 10:14:52;;;;;;;3.42;2.45;;;;;;;;;;4958918;28;20047;-79
2022/04/21 10:17:18;;;;;;;3.80;2.22;;;;;;;;;;4960812;28;20045;-78
2022/04/21 10:19:44;;;;;;;5.15;2.80;;;;;;;;;;4979337;28;20041;-77
2022/04/21 10:22:14;;;;;;;2.58;2.00;;;;;;;;;;4959401;28;20042;-75
2022/04/21 10:24:41;;;;;;;3.40;2.50;;;;;;;;;;4959049;28;20052;-77
2022/04/21 10:27:27;;;;;;;5.45;2.63;;;;;;;;;;4961049;28;20038;-78
2022/04/21 10:29:53;;;;;;;3.95;2.63;;;;;;;;;;4972833;28;20114;-76
2022/04/21 10:32:19;;;;;;;3.53;2.67;;;;;;;;;;4960678;28;20098;-78
2022/04/21 10:34:46;;;;;;;5.65;2.58;;;;;;;;;;4960946;28;20045;-77
2022/04/21 10:37:15;;;;;;;3.03;2.63;;;;;;;;;;4961582;28;20038;-77
2022/04/21 10:40:00;;;;;;;5.22;2.90;;;;;;;;;;4962767;28;20039;-81
2022/04/21 10:42:27;;;;;;;4.97;2.38;;;;;;;;;;4961460;28;20399;-79
2022/04/21 10:44:58;;;;;;;4.72;2.55;;;;;;;;;;4971807;28;20471;-78
2022/04/21 10:47:30;;;;;;;5.38;3.28;;;;;;;;;;4962689;28;20044;-78
2022/04/21 10:49:57;;;;;;;4.20;2.25;;;;;;;;;;4976386;28;20048;-78
2022/04/21 10:57:47;;;;;;;8.52;3.40;;;;;;;;;;4975626;28;20042;-81
2022/04/21 11:00:13;;;;;;;;;;;;;;;;;;4964633;28;20034;-80
2022/04/21 11:02:47;;;;;;;4.45;2.88;;;;;;;;;;4978570;28;19928;-76
2022/04/21 11:05:22;;;;;;;6.13;3.10;;;;;;;;;;4958943;28;20075;-81
2022/04/21 11:08:14;;;;;;;5.22;2.60;;;;;;;;;;4979177;28;20084;-77
2022/04/21 11:10:43;;;;;;;2.63;2.28;;;;;;;;;;4962479;28;20105;-79
2022/04/21 11:13:09;;;;;;;3.88;2.70;;;;;;;;;;4965104;28;20088;-75
2022/04/21 11:15:49;;;;;;;4.18;3.20;;;;;;;;;;4976984;28;20042;-78
2022/04/21 11:18:15;;;;;;;4.82;2.65;;;;;;;;;;4983393;28;20542;-76
2022/04/21 11:20:42;;;;;;;4.80;3.50;;;;;;;;;;4978331;28;20046;-75
2022/04/21 11:23:09;;;;;;;5.18;3.20;;;;;;;;;;4964045;28;20042;-82
2022/04/21 11:25:35;;;;;;;4.28;2.75;;;;;;;;;;4963797;28;20042;-77
2022/04/21 11:28:02;;;;;;;4.03;2.85;;;;;;;;;;4965381;28;20035;-77
2022/04/21 11:30:29;;;;;;;3.05;2.55;;;;;;;;;;4977304;28;20379;-78
2022/04/21 11:32:55;;;;;;;3.40;2.80;;;;;;;;;;4980815;28;20495;-79
2022/04/21 11:35:22;;;;;;;3.28;2.50;;;;;;;;;;4965064;28;20047;-77
2022/04/21 11:37:52;;;;;;;3.53;2.38;;;;;;;;;;4979331;28;20041;-79
2022/04/21 11:40:18;;;;;;;4.03;2.53;;;;;;;;;;4976872;28;20050;-75
2022/04/21 11:42:44;;;;;;;2.55;2.25;;;;;;;;;;4963672;28;20121;-80
2022/04/21 11:45:10;;;;;;;2.97;2.67;;;;;;;;;;4964411;28;20037;-78
2022/04/21 11:47:38;;;;;;;3.75;2.58;;;;;;;;;;4961545;28;20065;-78
2022/04/21 11:50:05;;;;;;;2.63;2.35;;;;;;;;;;4964102;28;20030;-81
2022/04/21 11:52:31;;;;;;;4.03;2.42;;;;;;;;;;4965743;28;20569;-81
2022/04/21 11:55:01;;;;;;;5.13;2.75;;;;;;;;;;4977424;28;20045;-76
2022/04/21 11:57:43;;;;;;;3.75;2.53;;;;;;;;;;4963627;28;20042;-80
2022/04/21 12:00:10;;;;;;;4.97;3.03;;;;;;;;;;4977994;28;20053;-78
2022/04/21 12:08:13;;;;;;;3.63;3.05;;;;;;;;;;4977413;28;20038;-78
2022/04/21 12:10:40;;;;;;;3.92;2.55;;;;;;;;;;4977132;28;20038;-78
2022/04/21 12:13:07;;;;;;;5.70;3.08;;;;;;;;;;4961778;28;20041;-76
2022/04/21 12:15:33;;;;;;;3.90;2.67;;;;;;;;;;4981265;28;20113;-80
2022/04/21 12:18:00;;;;;;;7.63;3.17;;;;;;;;;;4978113;28;20101;-79
2022/04/21 12:20:26;;;;;;;4.85;3.08;;;;;;;;;;4962711;28;20046;-84
2022/04/21 12:22:52;;;;;;;6.53;3.20;;;;;;;;;;4976436;28;20042;-79
2022/04/21 12:25:18;;;;;;;4.38;2.78;;;;;;;;;;4960712;28;20101;-80
2022/04/21 12:27:44;;;;;;;4.63;3.00;;;;;;;;;;4963265;28;20034;-79
2022/04/21 12:30:14;;;;;;;4.25;2.72;;;;;;;;;;4962120;28;20106;-80
2022/04/21 12:32:46;;;;;;;6.38;3.15;;;;;;;;;;4966350;28;20046;-76
2022/04/21 12:35:13;;;;;;;4.43;2.80;;;;;;;;;;4958662;28;20035;-80
2022/04/21 12:37:39;;;;;;;4.93;2.95;;;;;;;;;;4979850;28;20117;-82
2022/04/21 12:40:10;;;;;;;5.57;3.55;;;;;;;;;;4980898;28;20042;-81
2022/04/21 12:42:36;;;;;;;5.07;3.42;;;;;;;;;;4957178;28;20050;-82
2022/04/21 12:45:02;;;;;;;4.30;2.88;;;;;;;;;;4960640;28;20063;-82
2022/04/21 12:47:28;;;;;;;4.78;2.90;;;;;;;;;;4962673;28;20076;-77
2022/04/21 12:49:54;;;;;;;3.42;2.90;;;;;;;;;;4960598;28;20383;-78
2022/04/21 12:52:30;;;;;;;4.53;3.05;;;;;;;;;;4980415;28;20049;-77
2022/04/21 12:54:56;;;;;;;3.20;2.72;;;;;;;;;;4957316;28;20042;-79
2022/04/21 12:57:23;;;;;;;5.93;3.03;;;;;;;;;;4960795;28;20054;-79
2022/04/21 12:59:49;;;;;;;5.75;3.65;;;;;;;;;;4962609;28;20039;-78
2022/04/21 13:02:15;;;;;;;5.10;2.95;;;;;;;;;;4977425;28;20046;-78
2022/04/21 13:04:41;;;;;;;5.95;3.70;;;;;;;;;;4962905;28;20030;-81
2022/04/21 13:07:09;;;;;;;5.28;3.83;;;;;;;;;;4980203;28;20049;-78
2022/04/21 13:09:35;;;;;;;6.22;4.00;;;;;;;;;;4975186;28;20093;-79
2022/04/21 13:12:02;;;;;;;8.32;4.10;;;;;;;;;;4963204;28;20030;-80
2022/04/21 13:14:28;;;;;;;4.57;3.53;;;;;;;;;;4962967;28;20038;-78
2022/04/21 13:16:54;;;;;;;5.97;3.83;;;;;;;;;;4961782;28;20048;-78
2022/04/21 13:19:20;;;;;;;4.78;3.17;;;;;;;;;;4963515;28;20394;-79
2022/04/21 13:21:55;;;;;;;5.20;3.97;;;;;;;;;;4981420;28;20074;-80
2022/04/21 13:24:41;;;;;;;5.53;4.00;;;;;;;;;;4959963;28;20042;-80
2022/04/21 13:27:07;;;;;;;5.07;4.30;;;;;;;;;;4976318;28;20048;-78
2022/04/21 13:29:33;;;;;;;7.00;4.00;;;;;;;;;;4962820;28;20129;-75
2022/04/21 13:34:47;;;;;;;6.05;3.63;;;;;;;;;;4974906;28;20038;-78
2022/04/21 13:37:14;;;;;;;5.85;3.65;;;;;;;;;;4977428;28;20034;-79
2022/04/21 13:39:40;;;;;;;6.68;3.75;;;;;;;;;;4960222;28;20418;-80
2022/04/21 13:42:08;;;;;;;5.47;3.92;;;;;;;;;;4962710;28;20038;-77
2022/04/21 13:44:34;;;;;;;5.70;3.55;;;;;;;;;;4958078;28;20038;-81
2022/04/21 13:47:00;;;;;;;5.80;4.30;;;;;;;;;;4963122;28;20038;-78
2022/04/21 13:49:26;;;;;;;6.65;3.80;;;;;;;;;;4964837;28;20080;-78
2022/04/21 13:51:52;;;;;;;6.75;4.22;;;;;;;;;;4964221;28;20410;-78
2022/04/21 13:54:18;;;;;;;7.22;4.18;;;;;;;;;;4964601;28;20038;-79
2022/04/21 13:56:45;;;;;;;6.43;3.70;;;;;;;;;;4966424;28;20158;-78
2022/04/21 13:59:11;;;;;;;10.52;4.47;;;;;;;;;;4967663;28;20040;-78
2022/04/21 14:01:38;;;;;;;5.65;3.92;;;;;;;;;;4965820;28;20098;-80
2022/04/21 14:04:04;;;;;;;6.03;4.32;;;;;;;;;;4964159;28;20543;-78
2022/04/21 14:06:30;;;;;;;6.28;4.05;;;;;;;;;;4981309;28;20045;-79
2022/04/21 14:08:59;;;;;;;6.35;3.97;;;;;;;;;;4978263;28;20132;-79
2022/04/21 14:11:25;;;;;;;6.95;4.65;;;;;;;;;;4965129;28;20049;-82
2022/04/21 14:13:51;;;;;;;6.00;4.10;;;;;;;;;;4969420;28;20034;-79
2022/04/21 14:16:17;;;;;;;9.68;4.82;;;;;;;;;;4978284;28;20038;-79
2022/04/21 14:18:44;;;;;;;8.88;4.70;;;;;;;;;;4963041;28;20075;-79
2022/04/21 14:21:10;;;;;;;9.02;4.75;;;;;;;;;;4965945;28;20058;-78
2022/04/21 14:23:37;;;;;;;7.72;4.95;;;;;;;;;;4962900;28;20045;-81
2022/04/21 14:26:06;;;;;;;8.98;4.63;;;;;;;;;;4963614;28;20079;-80
2022/04/21 14:28:34;;;;;;;7.57;4.60;;;;;;;;;;4977837;28;20049;-77
2022/04/21 14:31:00;;;;;;;9.75;5.75;;;;;;;;;;4963454;28;20588;-80
2022/04/21 14:33:26;;;;;;;7.47;4.57;;;;;;;;;;4966112;28;20121;-82
2022/04/21 14:35:53;;;;;;;7.78;5.07;;;;;;;;;;4965610;28;20042;-79
2022/04/21 14:44:07;;;;;;;9.93;4.55;;;;;;;;;;4968105;28;20042;-77
2022/04/21 14:46:38;;;;;;;5.78;4.30;;;;;;;;;;4961838;28;20050;-83
2022/04/21 14:49:05;;;;;;;7.75;4.88;;;;;;;;;;4957119;28;20038;-77
2022/04/21 14:51:31;;;;;;;9.45;4.93;;;;;;;;;;4960595;28;20360;-79
2022/04/21 14:53:57;;;;;;;6.32;4.80;;;;;;;;;;4961804;28;20761;-81
2022/04/21 14:56:23;;;;;;;10.45;4.57;;;;;;;;;;4955945;28;20046;-83
2022/04/21 14:58:50;;;;;;;7.53;4.65;;;;;;;;;;4977486;28;20038;-81
2022/04/21 15:01:17;;;;;;;8.50;4.90;;;;;;;;;;4961927;28;20415;-78
2022/04/21 15:03:43;;;;;;;5.32;4.13;;;;;;;;;;4974469;28;20046;-77
2022/04/21 15:06:10;;;;;;;8.07;4.85;;;;;;;;;;4983861;28;20046;-78
2022/04/21 15:08:36;;;;;;;9.93;5.18;;;;;;;;;;4963288;28;20048;-76
2022/04/21 15:11:04;;;;;;;9.52;4.75;;;;;;;;;;4979578;28;20097;-81
2022/04/21 15:13:30;;;;;;;7.63;4.47;;;;;;;;;;4962062;28;20038;-80
2022/04/21 15:15:56;;;;;;;10.73;4.82;;;;;;;;;;4961082;28;20072;-82
2022/04/21 15:18:23;;;;;;;7.78;4.70;;;;;;;;;;4961335;28;20057;-80
2022/04/21 15:20:49;;;;;;;8.30;5.63;;;;;;;;;;4958381;28;20050;-81
2022/04/21 15:23:15;;;;;;;8.65;5.13;;;;;;;;;;4958524;28;20097;-82
2022/04/21 15:25:43;;;;;;;4.65;3.55;;;;;;;;;;4959860;28;20053;-82
2022/04/21 15:28:09;;;;;;;9.23;4.72;;;;;;;;;;4959659;28;20038;-79
2022/04/21 15:30:40;;;;;;;8.98;5.68;;;;;;;;;;4958006;28;20133;-76
2022/04/21 15:33:07;;;;;;;8.18;4.85;;;;;;;;;;4972261;28;20046;-81
2022/04/21 15:35:33;;;;;;;8.52;5.10;;;;;;;;;;4974207;28;20050;-80
2022/04/21 15:37:59;;;;;;;7.05;4.97;;;;;;;;;;4964169;28;20085;-79